Time;durP1;ratioP1;P1;durP2;ratioP2;P2;SDS_P1;SDS_P2;PMS_P1;PMS_P2;Temp;Humidity;BMP_temperature;BMP_pressure;BME280_temperature;BME280_humidity;BME280_pressure;Samples;Min_cycle;Max_cycle;Signal;HPM_P1;HPM_P2
2021/08/07 00:00:10;;;;;;;7.65;1.20;;;16.80;97.20;;;;;;4970441;28;20109;-87
2021/08/07 00:02:36;;;;;;;4.40;0.90;;;16.80;97.30;;;;;;4973874;28;20030;-87
2021/08/07 00:05:02;;;;;;;7.45;1.08;;;16.80;97.40;;;;;;4970719;28;20018;-86
2021/08/07 00:07:27;;;;;;;7.35;1.40;;;16.80;97.40;;;;;;4971726;28;20038;-86
2021/08/07 00:09:54;;;;;;;6.20;1.13;;;16.70;97.40;;;;;;4968640;28;20058;-87
2021/08/07 00:12:20;;;;;;;6.93;1.35;;;16.70;97.50;;;;;;4970919;28;20035;-86
2021/08/07 00:14:45;;;;;;;4.22;1.00;;;16.70;97.60;;;;;;4971792;28;20030;-86
2021/08/07 00:17:11;;;;;;;3.92;1.65;;;16.70;97.70;;;;;;4972278;28;20089;-87
2021/08/07 00:19:37;;;;;;;5.07;1.20;;;16.70;97.70;;;;;;4971677;28;20496;-86
2021/08/07 00:22:03;;;;;;;4.60;1.30;;;16.60;97.80;;;;;;4972703;28;20026;-87
2021/08/07 00:24:29;;;;;;;5.82;1.30;;;16.60;97.90;;;;;;4972978;28;20046;-87
2021/08/07 00:26:55;;;;;;;3.60;1.23;;;16.60;98.00;;;;;;4972564;28;20061;-87
2021/08/07 00:29:20;;;;;;;4.13;1.70;;;16.70;98.00;;;;;;4964069;28;20053;-86
2021/08/07 00:31:46;;;;;;;4.88;1.75;;;16.60;98.10;;;;;;4968309;28;20026;-87
2021/08/07 00:34:11;;;;;;;5.07;1.17;;;16.50;98.10;;;;;;4971581;28;20042;-87
2021/08/07 00:36:37;;;;;;;5.78;1.40;;;16.50;98.20;;;;;;4971774;28;20057;-87
2021/08/07 00:39:02;;;;;;;6.50;2.22;;;16.50;98.30;;;;;;4969240;28;20027;-87
2021/08/07 00:41:28;;;;;;;6.35;1.83;;;16.50;98.30;;;;;;4968439;28;20129;-87
2021/08/07 00:43:53;;;;;;;6.13;1.52;;;16.50;98.40;;;;;;4971226;28;20027;-87
2021/08/07 00:46:19;;;;;;;5.68;1.63;;;16.40;98.40;;;;;;4970877;28;20050;-87
2021/08/07 00:48:45;;;;;;;5.90;1.77;;;16.40;98.50;;;;;;4965308;28;20035;-87
2021/08/07 00:51:11;;;;;;;8.52;1.88;;;16.40;98.50;;;;;;4964213;28;20554;-87
2021/08/07 00:53:36;;;;;;;4.55;1.88;;;16.40;98.60;;;;;;4973155;28;20038;-87
2021/08/07 00:56:03;;;;;;;5.57;1.67;;;16.40;98.70;;;;;;4971164;28;20027;-87
2021/08/07 00:58:28;;;;;;;5.38;2.15;;;16.30;98.70;;;;;;4972205;28;20027;-87
2021/08/07 01:00:54;;;;;;;4.75;1.95;;;16.30;98.90;;;;;;4970980;28;20498;-87
2021/08/07 01:03:33;;;;;;;6.95;2.28;;;16.20;99.00;;;;;;4969567;28;20035;-86
2021/08/07 01:06:30;;;;;;;4.35;1.88;;;16.20;99.10;;;;;;4967853;28;20034;-86
2021/08/07 01:09:15;;;;;;;5.38;2.55;;;16.30;99.20;;;;;;4971076;28;20089;-86
2021/08/07 01:11:53;;;;;;;4.72;2.33;;;16.20;99.30;;;;;;4969289;28;20456;-86
2021/08/07 01:14:28;;;;;;;5.53;2.25;;;16.20;99.40;;;;;;4983821;28;20601;-86
2021/08/07 01:16:54;;;;;;;5.72;2.70;;;16.20;99.50;;;;;;4969746;28;20027;-86
2021/08/07 01:19:23;;;;;;;5.97;3.42;;;16.20;99.60;;;;;;4966167;28;20081;-87
2021/08/07 01:21:59;;;;;;;5.68;2.50;;;16.30;99.70;;;;;;4969175;28;20057;-87
2021/08/07 01:24:36;;;;;;;6.03;3.22;;;16.20;99.80;;;;;;4972684;28;20150;-87
2021/08/07 01:27:24;;;;;;;6.40;2.90;;;16.20;99.90;;;;;;4969822;28;20419;-86
2021/08/07 01:29:54;;;;;;;5.25;2.97;;;16.30;99.90;;;;;;4965714;28;20573;-87
2021/08/07 01:32:28;;;;;;;4.60;3.05;;;16.30;99.90;;;;;;4969018;28;20082;-87
2021/08/07 01:34:55;;;;;;;5.35;3.10;;;16.30;99.90;;;;;;4971715;28;20022;-87
2021/08/07 01:37:23;;;;;;;9.77;3.85;;;16.20;99.90;;;;;;4970539;28;20051;-87
2021/08/07 01:39:51;;;;;;;4.25;3.22;;;16.20;99.90;;;;;;4967180;28;20030;-87
2021/08/07 01:42:17;;;;;;;8.50;3.97;;;16.20;99.90;;;;;;4970380;28;20165;-86
2021/08/07 01:44:42;;;;;;;6.45;3.45;;;16.10;99.90;;;;;;4964587;28;20063;-86
2021/08/07 01:47:22;;;;;;;6.97;3.90;;;16.10;99.90;;;;;;4967747;28;20078;-86
2021/08/07 01:49:58;;;;;;;4.38;3.65;;;16.00;99.90;;;;;;4981373;28;20038;-87
2021/08/07 01:52:27;;;;;;;5.85;3.47;;;16.00;99.90;;;;;;4970516;28;20490;-86
2021/08/07 01:54:58;;;;;;;8.05;4.35;;;15.90;99.90;;;;;;4969527;28;20468;-86
2021/08/07 01:57:25;;;;;;;7.10;4.17;;;15.90;99.90;;;;;;4967863;28;20110;-86
2021/08/07 01:59:52;;;;;;;9.30;3.83;;;15.80;99.90;;;;;;4970384;28;20023;-87
2021/08/07 02:02:19;;;;;;;8.65;4.15;;;15.80;99.90;;;;;;4969196;28;20035;-86
2021/08/07 02:04:45;;;;;;;10.05;4.35;;;15.70;99.90;;;;;;4967783;28;20464;-86
2021/08/07 02:07:11;;;;;;;8.65;4.20;;;15.70;99.90;;;;;;4966490;28;20133;-86
2021/08/07 02:09:38;;;;;;;9.02;4.00;;;15.70;99.90;;;;;;4960473;28;20047;-86
2021/08/07 02:12:05;;;;;;;7.15;4.03;;;15.60;99.90;;;;;;4970435;28;20022;-85
2021/08/07 02:14:32;;;;;;;8.68;4.55;;;15.50;99.90;;;;;;4967574;28;20047;-86
2021/08/07 02:17:01;;;;;;;10.52;4.60;;;15.60;99.90;;;;;;4968086;28;20027;-86
2021/08/07 02:19:26;;;;;;;8.32;4.43;;;15.50;99.90;;;;;;4966518;28;20086;-86
2021/08/07 02:21:52;;;;;;;8.48;3.78;;;15.50;99.90;;;;;;4967897;28;20026;-86
2021/08/07 02:24:18;;;;;;;9.60;4.13;;;15.50;99.90;;;;;;4969980;28;20122;-86
2021/08/07 02:26:45;;;;;;;9.32;4.18;;;15.50;99.90;;;;;;4968489;28;20106;-87
2021/08/07 02:29:11;;;;;;;7.40;4.35;;;15.50;99.90;;;;;;4967572;28;20063;-86
2021/08/07 02:31:37;;;;;;;8.20;4.30;;;15.40;99.90;;;;;;4969185;28;20033;-86
2021/08/07 02:34:03;;;;;;;9.18;4.05;;;15.40;99.90;;;;;;4969413;28;20039;-86
2021/08/07 02:36:30;;;;;;;6.85;4.45;;;15.40;99.90;;;;;;4970083;28;20106;-86
2021/08/07 02:38:57;;;;;;;10.77;4.43;;;15.30;99.90;;;;;;4968026;28;20062;-87
2021/08/07 02:41:23;;;;;;;10.50;4.32;;;15.30;99.90;;;;;;4967881;28;20027;-87
2021/08/07 02:43:49;;;;;;;6.68;4.63;;;15.20;99.90;;;;;;4980218;28;20059;-86
2021/08/07 02:46:15;;;;;;;7.25;3.95;;;15.20;99.90;;;;;;4967562;28;20073;-86
2021/08/07 02:48:42;;;;;;;8.50;4.65;;;15.20;99.90;;;;;;4964828;28;20046;-86
2021/08/07 02:51:07;;;;;;;8.88;3.83;;;15.20;99.90;;;;;;4967507;28;20179;-86
2021/08/07 02:53:33;;;;;;;9.25;4.15;;;15.10;99.90;;;;;;4966740;28;20102;-86
2021/08/07 02:55:59;;;;;;;7.18;3.78;;;15.10;99.90;;;;;;4969234;28;20033;-86
2021/08/07 02:58:25;;;;;;;9.00;4.88;;;15.10;99.90;;;;;;4964518;28;20504;-86
2021/08/07 03:00:51;;;;;;;6.95;3.95;;;15.10;99.90;;;;;;4968136;28;20029;-86
2021/08/07 03:03:16;;;;;;;5.60;3.60;;;15.00;99.90;;;;;;4968121;28;20117;-86
2021/08/07 03:05:45;;;;;;;6.55;4.00;;;15.00;99.90;;;;;;4966871;28;20065;-87
2021/08/07 03:08:11;;;;;;;8.85;3.70;;;15.00;99.90;;;;;;4962209;28;20590;-86
2021/08/07 03:10:36;;;;;;;7.35;3.47;;;15.00;99.90;;;;;;4961833;28;20032;-86
2021/08/07 03:13:03;;;;;;;4.38;3.35;;;15.00;99.90;;;;;;4982973;28;20506;-86
2021/08/07 03:15:28;;;;;;;5.10;3.28;;;15.00;99.90;;;;;;4973830;28;20042;-86
2021/08/07 03:17:54;;;;;;;6.47;3.53;;;15.00;99.90;;;;;;4973584;28;20026;-86
2021/08/07 03:20:20;;;;;;;5.57;3.28;;;15.00;99.90;;;;;;4988964;28;20141;-86
2021/08/07 03:22:45;;;;;;;5.22;3.13;;;15.00;99.90;;;;;;4970931;28;20519;-86
2021/08/07 03:25:12;;;;;;;5.68;2.55;;;15.10;99.90;;;;;;4973048;28;20038;-85
2021/08/07 03:27:38;;;;;;;5.53;2.83;;;15.10;99.90;;;;;;4970165;28;20050;-86
2021/08/07 03:30:04;;;;;;;5.78;2.83;;;15.20;99.90;;;;;;4971335;28;20023;-86
2021/08/07 03:32:30;;;;;;;4.93;2.97;;;15.20;99.90;;;;;;4970077;28;20070;-85
2021/08/07 03:34:56;;;;;;;5.05;2.88;;;15.20;99.90;;;;;;4972682;28;20054;-86
2021/08/07 03:37:21;;;;;;;5.30;2.80;;;15.30;99.90;;;;;;4972019;28;20086;-86
2021/08/07 03:39:47;;;;;;;6.55;2.50;;;15.30;99.90;;;;;;4971039;28;20125;-87
2021/08/07 03:42:12;;;;;;;6.22;2.90;;;15.30;99.90;;;;;;4973517;28;20029;-86
2021/08/07 03:44:38;;;;;;;5.30;2.65;;;15.40;99.90;;;;;;4970888;28;20038;-86
2021/08/07 03:47:03;;;;;;;5.43;2.65;;;15.40;99.90;;;;;;4972170;28;20110;-86
2021/08/07 03:49:29;;;;;;;7.72;2.33;;;15.40;99.90;;;;;;4971021;28;20552;-86
2021/08/07 03:51:55;;;;;;;3.28;2.47;;;15.40;99.90;;;;;;4971902;28;20030;-86
2021/08/07 03:54:21;;;;;;;4.80;2.33;;;15.40;99.90;;;;;;4972997;28;20023;-86
2021/08/07 03:56:46;;;;;;;4.15;2.03;;;15.50;99.90;;;;;;4969609;28;20122;-86
2021/08/07 03:59:12;;;;;;;6.65;2.78;;;15.50;99.90;;;;;;4969175;28;20384;-86
2021/08/07 04:01:37;;;;;;;7.22;3.03;;;15.50;99.90;;;;;;4972126;28;20023;-86
2021/08/07 04:04:04;;;;;;;5.82;2.15;;;15.50;99.90;;;;;;4969020;28;20034;-86
2021/08/07 04:06:30;;;;;;;5.03;3.05;;;15.60;99.90;;;;;;4970762;28;20019;-86
2021/08/07 04:08:55;;;;;;;6.13;2.47;;;15.60;99.90;;;;;;4973801;28;20092;-84
2021/08/07 04:11:21;;;;;;;4.25;2.22;;;15.60;99.90;;;;;;4969597;28;20025;-86
2021/08/07 04:13:46;;;;;;;5.18;2.45;;;15.60;99.90;;;;;;4969721;28;20022;-86
2021/08/07 04:16:12;;;;;;;5.32;2.65;;;15.60;99.90;;;;;;4970002;28;20031;-85
2021/08/07 04:18:37;;;;;;;5.25;2.83;;;15.60;99.90;;;;;;4972393;28;20042;-86
2021/08/07 04:21:03;;;;;;;6.78;2.53;;;15.60;99.90;;;;;;4972441;28;20113;-86
2021/08/07 04:23:29;;;;;;;5.90;2.95;;;15.60;99.90;;;;;;4973595;28;20033;-85
2021/08/07 04:25:54;;;;;;;4.55;2.15;;;15.60;99.90;;;;;;4965238;28;20078;-85
2021/08/07 04:28:20;;;;;;;6.60;2.60;;;15.60;99.90;;;;;;4964017;28;20047;-86
2021/08/07 04:30:45;;;;;;;4.75;2.58;;;15.60;99.90;;;;;;4970334;28;20341;-86
2021/08/07 04:33:11;;;;;;;6.68;2.70;;;15.60;99.90;;;;;;4957103;28;20420;-86
2021/08/07 04:35:37;;;;;;;7.85;2.88;;;15.60;99.90;;;;;;4971060;28;20395;-86
2021/08/07 04:38:03;;;;;;;5.30;2.38;;;15.60;99.90;;;;;;4972754;28;20031;-84
2021/08/07 04:40:30;;;;;;;4.07;2.38;;;15.60;99.90;;;;;;4973981;28;20391;-86
2021/08/07 04:42:56;;;;;;;8.55;2.90;;;15.60;99.90;;;;;;4964332;28;20027;-86
2021/08/07 04:45:22;;;;;;;8.15;2.33;;;15.60;99.90;;;;;;4968901;28;20077;-86
2021/08/07 04:48:00;;;;;;;5.57;2.42;;;15.60;99.90;;;;;;4972038;28;20093;-85
2021/08/07 04:50:28;;;;;;;5.22;2.42;;;15.60;99.90;;;;;;4970978;28;20409;-86
2021/08/07 04:52:55;;;;;;;6.45;2.28;;;15.60;99.90;;;;;;4970889;28;20030;-86
2021/08/07 04:55:21;;;;;;;6.82;2.35;;;15.60;99.90;;;;;;4974317;28;20030;-86
2021/08/07 04:57:47;;;;;;;5.05;2.17;;;15.70;99.90;;;;;;4973990;28;20085;-85
2021/08/07 05:00:12;;;;;;;5.85;2.10;;;15.70;99.90;;;;;;4973219;28;20026;-86
2021/08/07 05:02:38;;;;;;;6.18;2.25;;;15.70;99.90;;;;;;4972772;28;20027;-85
2021/08/07 05:05:04;;;;;;;9.55;2.35;;;15.80;99.90;;;;;;4973094;28;20422;-85
2021/08/07 05:07:33;;;;;;;4.25;2.28;;;15.80;99.90;;;;;;4973523;28;20034;-86
2021/08/07 05:10:00;;;;;;;8.10;2.17;;;15.80;99.90;;;;;;4965953;28;20030;-85
2021/08/07 05:12:27;;;;;;;3.97;2.00;;;15.80;99.90;;;;;;4972885;28;20114;-86
2021/08/07 05:14:54;;;;;;;10.05;2.28;;;15.80;99.90;;;;;;4973320;28;20057;-85
2021/08/07 05:17:20;;;;;;;6.15;2.47;;;15.90;99.90;;;;;;4972731;28;20027;-86
2021/08/07 05:19:45;;;;;;;3.92;2.40;;;15.90;99.90;;;;;;4970081;28;20459;-85
2021/08/07 05:22:11;;;;;;;3.00;1.75;;;15.90;99.90;;;;;;4973471;28;20691;-86
2021/08/07 05:24:36;;;;;;;7.72;2.33;;;15.90;99.90;;;;;;4974690;28;20080;-86
2021/08/07 05:27:02;;;;;;;7.47;2.15;;;16.00;99.90;;;;;;4964376;28;20019;-86
2021/08/07 05:29:28;;;;;;;6.75;2.17;;;16.10;99.90;;;;;;4967024;28;20043;-86
2021/08/07 05:31:53;;;;;;;5.80;2.10;;;16.10;99.90;;;;;;4968978;28;20480;-86
2021/08/07 05:34:19;;;;;;;4.68;1.88;;;16.20;99.90;;;;;;4970718;28;20035;-86
2021/08/07 05:36:44;;;;;;;8.32;2.20;;;16.30;99.90;;;;;;4972954;28;20019;-86
2021/08/07 05:39:10;;;;;;;8.63;1.98;;;16.40;99.90;;;;;;4971461;28;20030;-86
2021/08/07 05:41:35;;;;;;;5.63;1.98;;;16.50;99.90;;;;;;4967307;28;20118;-86
2021/08/07 05:44:01;;;;;;;6.03;1.92;;;16.60;99.90;;;;;;4971130;28;20090;-85
2021/08/07 05:46:26;;;;;;;4.60;1.80;;;16.70;99.90;;;;;;4971824;28;20046;-86
2021/08/07 05:48:56;;;;;;;7.70;2.05;;;16.80;99.90;;;;;;4973811;28;20039;-87
2021/08/07 05:51:21;;;;;;;4.82;1.65;;;16.90;99.90;;;;;;4972040;28;20038;-87
2021/08/07 05:53:47;;;;;;;6.63;1.55;;;17.10;99.90;;;;;;4971479;28;20035;-86
2021/08/07 05:56:12;;;;;;;5.00;1.55;;;17.30;99.90;;;;;;4970865;28;20086;-86
2021/08/07 05:58:38;;;;;;;5.07;1.70;;;17.30;99.90;;;;;;4971155;28;20038;-87
2021/08/07 06:01:07;;;;;;;3.53;1.33;;;17.40;99.90;;;;;;4972634;28;20034;-87
2021/08/07 06:03:36;;;;;;;3.83;1.70;;;17.30;99.90;;;;;;4971285;28;20086;-86
2021/08/07 06:06:02;;;;;;;3.75;1.63;;;17.30;99.90;;;;;;4971655;28;20035;-86
2021/08/07 06:08:30;;;;;;;5.05;1.50;;;17.30;99.90;;;;;;4967868;28;20510;-87
2021/08/07 06:10:57;;;;;;;6.63;2.13;;;17.30;99.90;;;;;;4970458;28;20026;-86
2021/08/07 06:13:22;;;;;;;4.15;1.60;;;17.30;99.90;;;;;;4971579;28;20479;-87
2021/08/07 06:15:48;;;;;;;4.55;1.90;;;17.30;99.90;;;;;;4963790;28;20034;-86
2021/08/07 06:18:14;;;;;;;5.15;2.03;;;17.50;99.90;;;;;;4972715;28;20042;-86
2021/08/07 06:20:39;;;;;;;6.53;2.13;;;17.40;99.90;;;;;;4971209;28;20023;-86
2021/08/07 06:23:05;;;;;;;2.53;1.90;;;17.60;99.90;;;;;;4965915;28;20058;-86
2021/08/07 06:25:31;;;;;;;4.65;2.35;;;17.70;99.90;;;;;;4969379;28;20020;-86
2021/08/07 06:27:56;;;;;;;3.67;2.42;;;17.90;99.90;;;;;;4965184;28;20042;-86
2021/08/07 06:30:25;;;;;;;4.60;2.40;;;18.00;99.70;;;;;;4969295;28;20050;-86
2021/08/07 06:32:51;;;;;;;5.65;2.05;;;18.10;99.50;;;;;;4971139;28;20029;-90
2021/08/07 06:35:17;;;;;;;5.22;1.83;;;18.30;99.30;;;;;;4970762;28;20027;-90
2021/08/07 06:37:43;;;;;;;3.92;2.00;;;18.40;98.90;;;;;;4969064;28;20448;-89
2021/08/07 06:40:10;;;;;;;3.08;1.52;;;18.50;98.60;;;;;;4968545;28;20118;-90
2021/08/07 06:42:35;;;;;;;5.65;1.60;;;18.70;98.20;;;;;;4974339;28;20042;-88
2021/08/07 06:45:01;;;;;;;4.35;1.55;;;18.80;97.90;;;;;;4972339;28;20019;-88
2021/08/07 06:47:27;;;;;;;3.03;1.63;;;18.90;97.30;;;;;;4973835;28;20037;-88
2021/08/07 06:49:52;;;;;;;6.55;1.58;;;19.10;97.00;;;;;;4976374;28;20038;-89
2021/08/07 06:52:18;;;;;;;4.28;1.40;;;19.30;96.90;;;;;;4977574;28;20042;-88
2021/08/07 06:54:43;;;;;;;5.93;1.00;;;19.40;96.10;;;;;;4972864;28;20172;-89
2021/08/07 06:57:15;;;;;;;3.38;0.95;;;19.60;95.80;;;;;;4977007;28;20042;-88
2021/08/07 06:59:40;;;;;;;5.40;1.10;;;19.70;95.10;;;;;;4978396;28;20027;-89
2021/08/07 07:02:06;;;;;;;3.28;0.93;;;19.80;94.50;;;;;;4975083;28;20325;-90
2021/08/07 07:04:31;;;;;;;7.60;1.13;;;20.00;94.30;;;;;;4976483;28;20050;-88
2021/08/07 07:06:57;;;;;;;3.97;0.90;;;20.10;93.70;;;;;;4977993;28;20069;-89
2021/08/07 07:09:22;;;;;;;3.35;0.70;;;20.30;93.10;;;;;;4976173;28;20126;-88
2021/08/07 07:11:48;;;;;;;2.35;0.60;;;20.40;92.30;;;;;;4976064;28;20051;-88
2021/08/07 07:14:14;;;;;;;3.20;0.60;;;20.50;91.40;;;;;;4975913;28;20470;-88
2021/08/07 07:16:40;;;;;;;4.63;0.70;;;20.50;91.50;;;;;;4976214;28;20038;-90
2021/08/07 07:19:05;;;;;;;2.15;0.52;;;20.70;91.50;;;;;;4977820;28;20422;-89
2021/08/07 07:21:31;;;;;;;4.00;0.60;;;20.90;91.30;;;;;;4976078;28;20065;-90
2021/08/07 07:23:56;;;;;;;4.30;0.50;;;21.00;90.60;;;;;;4976624;28;20471;-90
2021/08/07 07:26:22;;;;;;;10.25;1.63;;;21.10;90.10;;;;;;4972767;28;20050;-88
2021/08/07 07:28:48;;;;;;;5.30;0.50;;;21.10;89.50;;;;;;4970886;28;20051;-88
2021/08/07 07:31:13;;;;;;;2.85;0.30;;;21.20;89.40;;;;;;4969470;28;20038;-88
2021/08/07 07:33:39;;;;;;;2.85;0.50;;;21.20;87.80;;;;;;4974642;28;20395;-89
2021/08/07 07:36:04;;;;;;;2.63;0.30;;;21.20;87.30;;;;;;4969226;28;20034;-87
2021/08/07 07:38:31;;;;;;;3.78;0.40;;;21.20;86.00;;;;;;4973905;28;20027;-87
2021/08/07 07:40:56;;;;;;;1.67;0.30;;;21.10;85.00;;;;;;4969989;28;20058;-87
2021/08/07 07:43:22;;;;;;;2.92;0.40;;;21.10;85.40;;;;;;4974556;28;20058;-88
2021/08/07 07:45:47;;;;;;;2.80;0.60;;;21.00;85.40;;;;;;4972274;28;20022;-88
2021/08/07 07:48:13;;;;;;;4.63;0.40;;;21.00;85.50;;;;;;4973448;28;20455;-88
2021/08/07 07:50:39;;;;;;;2.45;0.40;;;20.90;85.20;;;;;;4971735;28;20483;-88
2021/08/07 07:53:04;;;;;;;3.10;0.40;;;21.00;85.20;;;;;;4973986;28;20106;-88
2021/08/07 07:55:30;;;;;;;2.55;0.45;;;20.90;85.70;;;;;;4970504;28;20093;-88
2021/08/07 07:58:00;;;;;;;3.92;0.52;;;20.90;85.90;;;;;;4971791;28;20023;-88
2021/08/07 08:00:26;;;;;;;3.58;0.68;;;21.10;86.70;;;;;;4972806;28;20026;-88
2021/08/07 08:02:52;;;;;;;1.98;0.40;;;21.30;85.90;;;;;;4972592;28;20030;-88
2021/08/07 08:05:19;;;;;;;2.17;0.30;;;21.50;85.00;;;;;;4975203;28;20027;-88
2021/08/07 08:07:44;;;;;;;2.28;0.20;;;21.80;83.60;;;;;;4972347;28;20045;-88
2021/08/07 08:10:15;;;;;;;1.88;0.30;;;22.00;82.80;;;;;;4977179;28;20035;-90
2021/08/07 08:12:40;;;;;;;2.50;0.30;;;22.10;80.20;;;;;;4974168;28;20093;-90
2021/08/07 08:15:07;;;;;;;3.70;0.63;;;22.10;80.30;;;;;;4974477;28;20026;-90
2021/08/07 08:17:34;;;;;;;3.58;1.02;;;22.00;79.60;;;;;;4971250;28;20510;-90
2021/08/07 08:20:00;;;;;;;2.53;0.50;;;21.90;79.10;;;;;;4988604;28;20499;-89
2021/08/07 08:22:25;;;;;;;3.70;0.57;;;21.90;80.20;;;;;;4974426;28;20062;-90
2021/08/07 08:24:52;;;;;;;5.32;0.70;;;21.80;79.60;;;;;;4968843;28;20050;-90
2021/08/07 08:27:25;;;;;;;4.90;0.70;;;21.70;80.00;;;;;;4973137;28;20047;-90
2021/08/07 08:29:52;;;;;;;2.72;0.60;;;21.50;80.30;;;;;;4984173;28;20027;-88
2021/08/07 08:32:19;;;;;;;4.00;0.60;;;21.40;81.10;;;;;;4972856;28;20023;-89
2021/08/07 08:34:46;;;;;;;3.58;0.70;;;21.40;81.30;;;;;;4974905;28;20450;-90
2021/08/07 08:37:18;;;;;;;4.60;0.63;;;21.40;81.80;;;;;;4973962;28;20065;-89
2021/08/07 08:39:48;;;;;;;3.58;0.50;;;21.30;81.00;;;;;;4971499;28;20106;-89
2021/08/07 08:42:15;;;;;;;7.05;0.70;;;21.30;81.20;;;;;;4974395;28;20376;-90
2021/08/07 08:44:41;;;;;;;2.30;0.40;;;21.30;81.00;;;;;;4977649;28;20499;-88
2021/08/07 08:47:08;;;;;;;4.53;0.73;;;21.40;80.60;;;;;;4974796;28;20087;-90
2021/08/07 08:49:35;;;;;;;4.03;0.80;;;21.40;80.30;;;;;;4980016;28;20042;-90
2021/08/07 08:52:02;;;;;;;5.75;0.50;;;21.50;80.10;;;;;;4981780;28;20031;-86
2021/08/07 08:54:29;;;;;;;3.13;0.70;;;21.50;80.70;;;;;;4983514;28;20034;-91
2021/08/07 08:56:55;;;;;;;4.47;0.47;;;21.60;80.30;;;;;;4971051;28;20035;-90
2021/08/07 08:59:22;;;;;;;4.28;0.70;;;21.60;81.00;;;;;;4971608;28;20041;-86
2021/08/07 09:01:55;;;;;;;3.80;0.60;;;21.50;80.20;;;;;;4971638;28;20118;-87
2021/08/07 09:04:23;;;;;;;4.38;1.25;;;21.40;80.60;;;;;;4969762;28;20031;-87
2021/08/07 09:06:50;;;;;;;2.78;0.68;;;21.30;81.80;;;;;;4969721;28;20034;-87
2021/08/07 09:09:16;;;;;;;2.63;0.55;;;21.30;82.80;;;;;;4970431;28;20038;-87
2021/08/07 09:11:53;;;;;;;4.75;0.63;;;21.30;83.30;;;;;;4971867;28;20026;-87
2021/08/07 09:14:22;;;;;;;4.80;0.70;;;21.50;84.10;;;;;;4972263;28;20038;-87
2021/08/07 09:17:01;;;;;;;3.30;0.70;;;21.70;83.70;;;;;;4969152;28;20471;-87
2021/08/07 09:19:42;;;;;;;4.28;0.98;;;21.90;83.50;;;;;;4969866;28;20074;-85
2021/08/07 09:22:10;;;;;;;2.00;0.82;;;22.10;83.00;;;;;;4986229;28;20117;-86
2021/08/07 09:25:00;;;;;;;5.40;0.85;;;22.20;83.10;;;;;;4968825;28;20135;-86
2021/08/07 09:27:47;;;;;;;5.68;0.60;;;22.40;82.10;;;;;;4961566;28;20039;-87
2021/08/07 09:30:16;;;;;;;2.45;0.50;;;22.40;80.60;;;;;;4970415;28;20037;-86
2021/08/07 09:32:52;;;;;;;4.82;0.60;;;22.40;80.70;;;;;;4984116;28;20027;-87
2021/08/07 09:35:23;;;;;;;3.30;0.50;;;22.50;80.80;;;;;;4971059;28;20387;-86
2021/08/07 09:38:22;;;;;;;14.10;0.77;;;22.50;80.70;;;;;;4983472;28;20395;-86
2021/08/07 09:41:01;;;;;;;5.15;0.60;;;22.70;78.90;;;;;;4966944;28;20097;-86
2021/08/07 09:43:29;;;;;;;1.98;0.40;;;22.60;77.60;;;;;;4969000;28;20077;-85
2021/08/07 09:46:19;;;;;;;2.53;0.40;;;22.40;78.30;;;;;;4972044;28;20082;-87
2021/08/07 09:48:52;;;;;;;3.13;0.68;;;22.10;79.20;;;;;;4971227;28;20439;-87
2021/08/07 09:51:22;;;;;;;3.17;0.50;;;21.80;80.50;;;;;;4965567;28;20441;-86
2021/08/07 09:54:11;;;;;;;4.78;0.52;;;21.70;81.30;;;;;;4971026;28;20031;-87
2021/08/07 09:56:45;;;;;;;3.30;0.40;;;21.80;80.80;;;;;;4982851;28;20023;-86
2021/08/07 09:59:11;;;;;;;3.88;0.50;;;21.80;80.50;;;;;;4970280;28;20049;-86
2021/08/07 10:01:37;;;;;;;3.83;0.50;;;21.90;81.00;;;;;;4971587;28;20027;-86
2021/08/07 10:04:11;;;;;;;2.25;0.43;;;22.00;80.50;;;;;;4970828;28;20026;-86
2021/08/07 10:06:37;;;;;;;6.13;0.55;;;22.20;81.00;;;;;;4987267;28;20479;-86
2021/08/07 10:09:04;;;;;;;2.80;0.40;;;22.40;80.40;;;;;;4972668;28;20074;-86
2021/08/07 10:11:30;;;;;;;4.30;0.40;;;22.50;78.10;;;;;;4972431;28;20027;-84
2021/08/07 10:13:56;;;;;;;2.33;0.30;;;22.40;78.20;;;;;;4966104;28;20049;-86
2021/08/07 10:16:22;;;;;;;3.08;0.40;;;22.50;77.80;;;;;;4968345;28;20118;-86
2021/08/07 10:18:49;;;;;;;3.95;0.30;;;22.40;76.10;;;;;;4972546;28;20091;-88
2021/08/07 10:21:15;;;;;;;2.60;0.30;;;22.30;76.20;;;;;;4965468;28;20122;-86
2021/08/07 10:23:41;;;;;;;2.63;0.40;;;22.20;76.10;;;;;;4975739;28;20117;-87
2021/08/07 10:26:14;;;;;;;2.65;0.40;;;22.20;77.70;;;;;;4976390;28;20122;-86
2021/08/07 10:28:51;;;;;;;4.18;0.40;;;22.40;77.50;;;;;;4974428;28;20047;-87
2021/08/07 10:31:23;;;;;;;2.30;0.30;;;22.70;75.70;;;;;;4985997;28;20033;-87
2021/08/07 10:33:51;;;;;;;6.97;0.55;;;22.70;74.00;;;;;;4973673;28;20031;-86
2021/08/07 10:36:17;;;;;;;2.58;0.30;;;22.80;74.70;;;;;;4976390;28;20031;-84
2021/08/07 10:38:42;;;;;;;5.65;0.40;;;22.90;74.90;;;;;;4972686;28;20027;-86
2021/08/07 10:41:08;;;;;;;3.10;0.40;;;23.10;74.90;;;;;;4978752;28;20026;-86
2021/08/07 10:43:39;;;;;;;2.97;0.30;;;23.30;73.50;;;;;;4973763;28;20037;-86
2021/08/07 10:46:06;;;;;;;2.38;0.30;;;23.40;71.50;;;;;;4989208;28;20046;-86
2021/08/07 10:48:44;;;;;;;4.13;0.40;;;23.60;71.10;;;;;;4970878;28;20387;-85
2021/08/07 10:51:22;;;;;;;1.85;0.30;;;23.60;70.40;;;;;;4972152;28;20027;-86
2021/08/07 10:53:58;;;;;;;2.97;0.40;;;23.60;68.50;;;;;;4975232;28;20372;-86
2021/08/07 10:56:27;;;;;;;3.05;0.50;;;23.50;67.00;;;;;;4982294;28;20023;-86
2021/08/07 10:58:54;;;;;;;3.58;0.40;;;23.50;67.70;;;;;;4961557;28;20035;-86
2021/08/07 11:01:25;;;;;;;1.42;0.30;;;23.40;67.90;;;;;;4970562;28;20078;-86
2021/08/07 11:04:11;;;;;;;3.90;0.30;;;23.50;68.20;;;;;;4975761;28;20093;-85
2021/08/07 11:06:43;;;;;;;4.28;0.30;;;23.40;68.90;;;;;;4972001;28;20035;-86
2021/08/07 11:09:28;;;;;;;2.88;0.40;;;23.50;69.60;;;;;;4958800;28;20519;-87
2021/08/07 11:12:08;;;;;;;3.65;0.30;;;23.50;68.20;;;;;;4975356;28;20062;-86
2021/08/07 11:14:34;;;;;;;4.00;0.40;;;23.50;68.90;;;;;;4974846;28;20027;-87
2021/08/07 11:17:06;;;;;;;2.22;0.40;;;23.70;68.00;;;;;;4974368;28;20031;-84
2021/08/07 11:19:50;;;;;;;5.30;0.73;;;23.80;67.70;;;;;;4968560;28;20037;-85
2021/08/07 11:22:31;;;;;;;2.72;0.30;;;24.00;67.80;;;;;;4974694;28;20588;-87
2021/08/07 11:25:01;;;;;;;2.03;0.30;;;24.10;66.70;;;;;;4974528;28;20070;-86
2021/08/07 11:27:55;;;;;;;2.60;0.30;;;23.90;65.90;;;;;;4971335;28;20067;-87
2021/08/07 11:30:35;;;;;;;1.75;0.40;;;23.90;66.90;;;;;;4965187;28;20537;-87
2021/08/07 11:33:04;;;;;;;3.08;0.30;;;23.80;66.60;;;;;;4977016;28;20491;-86
2021/08/07 11:35:41;;;;;;;3.17;0.30;;;24.00;67.10;;;;;;4975811;28;20027;-86
2021/08/07 11:38:13;;;;;;;2.47;0.35;;;24.10;65.90;;;;;;4976548;28;20046;-87
2021/08/07 11:41:02;;;;;;;3.35;0.32;;;24.20;66.50;;;;;;4972520;28;20027;-86
2021/08/07 11:43:34;;;;;;;1.23;0.30;;;24.20;64.70;;;;;;4975682;28;20031;-86
2021/08/07 11:46:06;;;;;;;1.92;0.22;;;24.10;65.00;;;;;;4974789;28;20054;-85
2021/08/07 11:48:36;;;;;;;1.45;0.28;;;24.00;65.20;;;;;;4975943;28;20046;-84
2021/08/07 11:51:11;;;;;;;2.03;0.40;;;24.00;63.40;;;;;;4976658;28;20027;-86
2021/08/07 11:53:42;;;;;;;3.55;0.30;;;24.00;63.70;;;;;;4976909;28;20053;-87
2021/08/07 11:56:17;;;;;;;3.10;0.30;;;24.00;64.00;;;;;;4975366;28;20050;-86
2021/08/07 11:58:54;;;;;;;2.47;0.30;;;24.00;64.00;;;;;;4976579;28;20045;-86
2021/08/07 12:01:21;;;;;;;5.28;0.30;;;23.80;63.80;;;;;;4976007;28;20027;-86
2021/08/07 12:03:52;;;;;;;1.50;0.47;;;23.80;63.50;;;;;;4978292;28;20443;-85
2021/08/07 12:06:21;;;;;;;1.70;0.30;;;23.90;63.30;;;;;;4975794;28;20023;-85
2021/08/07 12:08:50;;;;;;;1.48;0.20;;;24.00;62.80;;;;;;4977207;28;20035;-87
2021/08/07 12:11:17;;;;;;;3.10;0.47;;;24.10;62.20;;;;;;4976297;28;20451;-85
2021/08/07 12:13:50;;;;;;;1.67;0.30;;;23.90;61.10;;;;;;4975997;28;20502;-84
2021/08/07 12:16:19;;;;;;;1.35;0.28;;;23.70;62.20;;;;;;4977313;28;20117;-85
2021/08/07 12:18:49;;;;;;;1.52;0.20;;;23.70;63.00;;;;;;4978513;28;20034;-86
2021/08/07 12:21:31;;;;;;;2.55;0.30;;;23.80;63.10;;;;;;4974992;28;20090;-87
2021/08/07 12:24:11;;;;;;;6.10;0.30;;;23.80;62.90;;;;;;4973403;28;20030;-87
2021/08/07 12:26:49;;;;;;;1.77;0.20;;;23.70;62.50;;;;;;4975893;28;20019;-86
2021/08/07 12:29:17;;;;;;;1.80;0.20;;;23.60;62.70;;;;;;4974740;28;20062;-85
2021/08/07 12:31:49;;;;;;;1.40;0.20;;;23.60;64.00;;;;;;4978655;28;20023;-86
2021/08/07 12:34:17;;;;;;;2.67;0.20;;;23.80;62.80;;;;;;4970522;28;20034;-86
2021/08/07 12:36:55;;;;;;;2.33;0.25;;;23.80;61.70;;;;;;4976523;28;20031;-86
2021/08/07 12:39:20;;;;;;;2.58;0.50;;;23.80;60.90;;;;;;4977095;28;20019;-86
2021/08/07 12:41:46;;;;;;;2.55;0.30;;;23.70;60.80;;;;;;4974114;28;20050;-86
2021/08/07 12:44:25;;;;;;;3.50;0.20;;;23.60;60.60;;;;;;4976078;28;20041;-86
2021/08/07 12:46:54;;;;;;;1.90;0.30;;;23.80;62.60;;;;;;4965073;28;20039;-87
2021/08/07 12:49:42;;;;;;;2.72;0.30;;;24.20;61.30;;;;;;4977644;28;20395;-87
2021/08/07 12:52:18;;;;;;;1.13;0.28;;;24.40;60.20;;;;;;4976527;28;20507;-87